createdAt,value
2017-08-24T00:00:28.872Z,1012.29
2017-08-24T00:01:28.895Z,1012.27
2017-08-24T00:02:28.915Z,1012.26
2017-08-24T00:03:28.938Z,1012.31
2017-08-24T00:04:28.962Z,1012.31
2017-08-24T00:05:28.981Z,1012.27
2017-08-24T00:06:29.006Z,1012.31
2017-08-24T00:07:29.027Z,1012.31
2017-08-24T00:08:29.047Z,1012.28
2017-08-24T00:09:29.073Z,1012.26
2017-08-24T00:11:29.111Z,1012.26
2017-08-24T00:12:29.139Z,1012.3
2017-08-24T00:13:29.155Z,1012.28
2017-08-24T00:14:29.183Z,1012.3
2017-08-24T00:15:29.204Z,1012.27
2017-08-24T00:16:29.227Z,1012.33
2017-08-24T00:17:29.251Z,1012.28
2017-08-24T00:18:29.270Z,1012.29
2017-08-24T00:19:29.288Z,1012.28
2017-08-24T00:20:29.312Z,1012.27
2017-08-24T00:21:29.336Z,1012.25
2017-08-24T00:22:29.359Z,1012.26
2017-08-24T00:23:29.381Z,1012.24
2017-08-24T00:24:29.405Z,1012.24
2017-08-24T00:25:29.422Z,1012.23
2017-08-24T00:27:29.470Z,1012.2
2017-08-24T00:28:29.490Z,1012.21
2017-08-24T00:29:29.514Z,1012.23
2017-08-24T00:30:29.536Z,1012.22
2017-08-24T00:31:29.558Z,1012.2
2017-08-24T00:32:29.577Z,1012.2
2017-08-24T00:33:29.604Z,1012.15
2017-08-24T00:34:29.625Z,1012.18
2017-08-24T00:35:29.643Z,1012.15
2017-08-24T00:36:29.668Z,1012.12
2017-08-24T00:37:29.689Z,1012.13
2017-08-24T00:38:29.710Z,1012.1
2017-08-24T00:39:29.735Z,1012.08
2017-08-24T00:40:29.756Z,1012.08
2017-08-24T00:41:29.779Z,1012.05
2017-08-24T00:43:29.822Z,1012
2017-08-24T00:44:29.841Z,1012.01
2017-08-24T00:45:29.866Z,1012.01
2017-08-24T00:46:29.883Z,1011.96
2017-08-24T00:47:29.909Z,1012
2017-08-24T00:48:29.930Z,1012
2017-08-24T00:49:29.954Z,1012.03
2017-08-24T00:50:29.981Z,1012
2017-08-24T00:51:29.997Z,1011.95
2017-08-24T00:52:30.016Z,1011.98
2017-08-24T00:53:30.040Z,1011.97
2017-08-24T00:54:30.060Z,1011.97
2017-08-24T00:55:30.085Z,1012.01
2017-08-24T00:56:30.105Z,1012.01
2017-08-24T00:57:30.128Z,1012.02
2017-08-24T00:59:30.169Z,1012
2017-08-24T01:00:30.197Z,1012.01
2017-08-24T01:01:30.215Z,1012
2017-08-24T01:02:30.238Z,1012.04
2017-08-24T01:03:30.261Z,1012.03
2017-08-24T01:04:30.279Z,1012.02
2017-08-24T01:05:30.304Z,1012.02
2017-08-24T01:06:30.325Z,1012.02
2017-08-24T01:07:30.349Z,1012.01
2017-08-24T01:08:30.369Z,1012.01
2017-08-24T01:09:30.390Z,1012.07
2017-08-24T01:10:30.415Z,1012.07
2017-08-24T01:11:30.433Z,1012.03
2017-08-24T01:12:30.457Z,1012.05
2017-08-24T01:14:30.501Z,1012.03
2017-08-24T01:15:30.522Z,1012
2017-08-24T01:16:30.545Z,1012.01
2017-08-24T01:17:30.566Z,1011.98
2017-08-24T01:18:30.591Z,1011.98
2017-08-24T01:19:30.609Z,1011.94
2017-08-24T01:20:30.632Z,1011.92
2017-08-24T01:21:30.653Z,1011.91
2017-08-24T01:22:30.674Z,1011.86
2017-08-24T01:23:30.698Z,1011.85
2017-08-24T01:24:30.716Z,1011.85
2017-08-24T01:25:30.740Z,1011.86
2017-08-24T01:26:30.762Z,1011.85
2017-08-24T01:27:30.781Z,1011.89
2017-08-24T01:28:30.804Z,1011.87
2017-08-24T01:29:30.829Z,1011.85
2017-08-24T01:30:30.850Z,1011.81
2017-08-24T01:31:30.870Z,1011.88
2017-08-24T01:32:30.893Z,1011.84
2017-08-24T01:33:30.912Z,1011.84
2017-08-24T01:34:30.937Z,1011.81
2017-08-24T01:35:30.958Z,1011.78
2017-08-24T01:36:30.992Z,1011.78
2017-08-24T01:37:31.003Z,1011.78
2017-08-24T01:38:31.022Z,1011.78
2017-08-24T01:39:31.047Z,1011.76
2017-08-24T01:40:31.069Z,1011.76
2017-08-24T01:41:31.089Z,1011.73
2017-08-24T01:42:31.111Z,1011.71
2017-08-24T01:43:31.130Z,1011.7
2017-08-24T01:44:31.156Z,1011.69
2017-08-24T01:46:31.201Z,1011.67
2017-08-24T01:47:31.218Z,1011.67
2017-08-24T01:48:31.244Z,1011.64
2017-08-24T01:49:31.261Z,1011.66
2017-08-24T01:50:31.288Z,1011.67
2017-08-24T01:51:31.305Z,1011.7
2017-08-24T01:52:31.327Z,1011.67
2017-08-24T01:53:31.361Z,1011.67
2017-08-24T01:54:31.368Z,1011.66
2017-08-24T01:55:31.390Z,1011.74
2017-08-24T01:56:31.412Z,1011.72
2017-08-24T01:57:31.436Z,1011.69
2017-08-24T01:58:31.457Z,1011.66
2017-08-24T01:59:31.477Z,1011.67
2017-08-24T02:00:31.500Z,1011.66
2017-08-24T02:02:31.543Z,1011.68
2017-08-24T02:03:31.566Z,1011.69
2017-08-24T02:04:31.588Z,1011.67
2017-08-24T02:05:31.609Z,1011.68
2017-08-24T02:06:31.632Z,1011.66
2017-08-24T02:07:31.649Z,1011.64
2017-08-24T02:08:31.673Z,1011.65
2017-08-24T02:09:31.697Z,1011.65
2017-08-24T02:10:31.717Z,1011.65
2017-08-24T02:11:31.740Z,1011.62
2017-08-24T02:12:31.757Z,1011.62
2017-08-24T02:13:31.782Z,1011.62
2017-08-24T02:14:31.801Z,1011.61
2017-08-24T02:15:31.825Z,1011.62
2017-08-24T02:16:31.846Z,1011.61
2017-08-24T02:18:31.887Z,1011.6
2017-08-24T02:19:31.910Z,1011.61
2017-08-24T02:20:31.929Z,1011.63
2017-08-24T02:21:31.954Z,1011.58
2017-08-24T02:22:31.976Z,1011.57
2017-08-24T02:23:31.994Z,1011.56
2017-08-24T02:24:32.016Z,1011.56
2017-08-24T02:25:32.037Z,1011.52
2017-08-24T02:26:32.061Z,1011.55
2017-08-24T02:27:32.083Z,1011.49
2017-08-24T02:28:32.105Z,1011.49
2017-08-24T02:29:32.123Z,1011.45
2017-08-24T02:30:32.148Z,1011.45
2017-08-24T02:31:32.170Z,1011.44
2017-08-24T02:32:32.190Z,1011.39
2017-08-24T02:34:32.231Z,1011.39
2017-08-24T02:35:32.260Z,1011.4
2017-08-24T02:36:32.277Z,1011.37
2017-08-24T02:37:32.299Z,1011.37
2017-08-24T02:38:32.318Z,1011.37
2017-08-24T02:39:32.339Z,1011.37
2017-08-24T02:40:32.412Z,1011.36
2017-08-24T02:41:32.385Z,1011.29
2017-08-24T02:42:32.408Z,1011.29
2017-08-24T02:43:32.429Z,1011.26
2017-08-24T02:44:32.444Z,1011.25
2017-08-24T02:45:32.473Z,1011.23
2017-08-24T02:46:32.491Z,1011.21
2017-08-24T02:47:32.516Z,1011.19
2017-08-24T02:49:32.554Z,1011.17
2017-08-24T02:50:32.630Z,1011.18
2017-08-24T02:51:32.600Z,1011.17
2017-08-24T02:52:32.622Z,1011.15
2017-08-24T02:53:32.641Z,1011.12
2017-08-24T02:54:32.660Z,1011.17
2017-08-24T02:55:32.685Z,1011.16
2017-08-24T02:56:32.709Z,1011.18
2017-08-24T02:57:32.727Z,1011.17
2017-08-24T02:58:32.751Z,1011.16
2017-08-24T02:59:32.770Z,1011.16
2017-08-24T03:00:32.791Z,1011.19
2017-08-24T03:01:32.814Z,1011.23
2017-08-24T03:02:32.833Z,1011.24
2017-08-24T03:03:32.855Z,1011.24
2017-08-24T03:04:32.881Z,1011.22
2017-08-24T03:05:32.901Z,1011.24
2017-08-24T03:06:32.921Z,1011.21
2017-08-24T03:07:32.944Z,1011.19
2017-08-24T03:08:32.966Z,1011.2
2017-08-24T03:09:32.984Z,1011.2
2017-08-24T03:10:33.007Z,1011.19
2017-08-24T03:11:33.027Z,1011.18
2017-08-24T03:12:33.051Z,1011.16
2017-08-24T03:13:33.070Z,1011.18
2017-08-24T03:14:33.092Z,1011.15
2017-08-24T03:15:33.113Z,1011.14
2017-08-24T03:16:33.133Z,1011.18
2017-08-24T03:17:33.152Z,1011.18
2017-08-24T03:18:33.177Z,1011.2
2017-08-24T03:19:33.197Z,1011.19
2017-08-24T03:21:33.242Z,1011.16
2017-08-24T03:22:33.266Z,1011.14
2017-08-24T03:23:33.287Z,1011.14
2017-08-24T03:24:33.303Z,1011.11
2017-08-24T03:25:33.326Z,1011.12
2017-08-24T03:26:33.350Z,1011.13
2017-08-24T03:27:33.366Z,1011.08
2017-08-24T03:28:33.390Z,1011.09
2017-08-24T03:29:33.406Z,1011.06
2017-08-24T03:30:33.431Z,1010.99
2017-08-24T03:31:33.457Z,1011.03
2017-08-24T03:32:33.474Z,1011.08
2017-08-24T03:33:33.495Z,1011.04
2017-08-24T03:34:33.513Z,1011.05
2017-08-24T03:35:33.539Z,1011
2017-08-24T03:37:33.580Z,1011.02
2017-08-24T03:38:33.600Z,1011
2017-08-24T03:39:33.626Z,1011
2017-08-24T03:40:33.646Z,1010.97
2017-08-24T03:41:33.666Z,1010.96
2017-08-24T03:42:33.684Z,1010.95
2017-08-24T03:43:33.707Z,1010.95
2017-08-24T03:44:33.725Z,1010.97
2017-08-24T03:45:33.751Z,1010.95
2017-08-24T03:46:33.773Z,1010.95
2017-08-24T03:47:33.792Z,1010.97
2017-08-24T03:48:33.813Z,1010.97
2017-08-24T03:49:33.833Z,1010.99
2017-08-24T03:50:33.855Z,1010.94
2017-08-24T03:51:33.878Z,1010.97
2017-08-24T03:53:33.919Z,1010.91
2017-08-24T03:54:33.939Z,1010.89
2017-08-24T03:55:33.959Z,1010.89
2017-08-24T03:56:33.982Z,1010.87
2017-08-24T03:57:34.008Z,1010.89
2017-08-24T03:58:34.027Z,1010.88
2017-08-24T03:59:34.053Z,1010.91
2017-08-24T04:00:34.068Z,1010.9
2017-08-24T04:01:34.092Z,1010.87
2017-08-24T04:02:34.109Z,1010.86
2017-08-24T04:03:34.132Z,1010.86
2017-08-24T04:04:34.155Z,1010.86
2017-08-24T04:05:34.176Z,1010.88
2017-08-24T04:06:34.193Z,1010.85
2017-08-24T04:07:34.217Z,1010.87
2017-08-24T04:09:34.256Z,1010.88
2017-08-24T04:10:34.281Z,1010.86
2017-08-24T04:11:34.299Z,1010.86
2017-08-24T04:12:34.324Z,1010.81
2017-08-24T04:13:34.346Z,1010.82
2017-08-24T04:14:34.364Z,1010.81
2017-08-24T04:15:34.387Z,1010.84
2017-08-24T04:16:34.407Z,1010.86
2017-08-24T04:17:34.425Z,1010.83
2017-08-24T04:18:34.498Z,1010.84
2017-08-24T04:19:34.471Z,1010.82
2017-08-24T04:20:34.492Z,1010.83
2017-08-24T04:21:34.515Z,1010.86
2017-08-24T04:22:34.534Z,1010.83
2017-08-24T04:24:34.577Z,1010.81
2017-08-24T04:25:34.598Z,1010.78
2017-08-24T04:26:34.617Z,1010.78
2017-08-24T04:27:34.641Z,1010.75
2017-08-24T04:28:34.662Z,1010.78
2017-08-24T04:29:34.683Z,1010.78
2017-08-24T04:30:34.704Z,1010.8
2017-08-24T04:31:34.722Z,1010.8
2017-08-24T04:32:34.749Z,1010.82
2017-08-24T04:33:34.766Z,1010.83
2017-08-24T04:34:34.785Z,1010.85
2017-08-24T04:35:34.810Z,1010.86
2017-08-24T04:36:34.830Z,1010.86
2017-08-24T04:37:34.856Z,1010.89
2017-08-24T04:38:34.873Z,1010.89
2017-08-24T04:39:34.895Z,1010.87
2017-08-24T04:40:34.915Z,1010.84
2017-08-24T04:41:34.933Z,1010.84
2017-08-24T04:42:34.959Z,1010.87
2017-08-24T04:43:34.980Z,1010.85
2017-08-24T04:44:35.002Z,1010.84
2017-08-24T04:45:35.022Z,1010.83
2017-08-24T04:46:35.047Z,1010.86
2017-08-24T04:47:35.065Z,1010.85
2017-08-24T04:48:35.087Z,1010.9
2017-08-24T04:49:35.109Z,1010.94
2017-08-24T04:50:35.133Z,1011.02
2017-08-24T04:51:35.151Z,1010.97
2017-08-24T04:52:35.171Z,1010.93
2017-08-24T04:53:35.193Z,1011
2017-08-24T04:54:35.212Z,1010.98
2017-08-24T04:56:35.259Z,1010.99
2017-08-24T04:57:35.281Z,1010.99
2017-08-24T04:58:35.306Z,1011
2017-08-24T04:59:35.329Z,1011.06
2017-08-24T05:00:35.351Z,1011.03
2017-08-24T05:01:35.377Z,1011.09
2017-08-24T05:02:35.399Z,1011.11
2017-08-24T05:03:35.425Z,1011.13
2017-08-24T05:04:35.445Z,1011.13
2017-08-24T05:05:35.472Z,1011.16
2017-08-24T05:06:35.495Z,1011.19
2017-08-24T05:07:35.520Z,1011.21
2017-08-24T05:08:35.543Z,1011.26
2017-08-24T05:09:35.568Z,1011.33
2017-08-24T05:10:35.593Z,1011.35
2017-08-24T05:12:35.641Z,1011.41
2017-08-24T05:13:35.670Z,1011.39
2017-08-24T05:14:35.691Z,1011.36
2017-08-24T05:15:35.720Z,1011.23
2017-08-24T05:16:35.743Z,1011.2
2017-08-24T05:17:35.772Z,1011.29
2017-08-24T05:18:35.795Z,1011.22
2017-08-24T05:19:35.821Z,1011.26
2017-08-24T05:20:35.847Z,1011.14
2017-08-24T05:21:35.873Z,1011.12
2017-08-24T05:22:35.898Z,1011.11
2017-08-24T05:23:35.921Z,1011.21
2017-08-24T05:24:35.948Z,1011.19
2017-08-24T05:25:35.973Z,1011.22
2017-08-24T05:26:36.003Z,1011.15
2017-08-24T05:28:36.052Z,1011.1
2017-08-24T05:29:36.079Z,1011.23
2017-08-24T05:30:36.103Z,1011.37
2017-08-24T05:31:36.126Z,1011.38
2017-08-24T05:32:36.156Z,1011.37
2017-08-24T05:33:36.176Z,1011.39
2017-08-24T05:34:36.206Z,1011.27
2017-08-24T05:35:36.228Z,1011.26
2017-08-24T05:36:36.256Z,1011.24
2017-08-24T05:37:36.285Z,1011.17
2017-08-24T05:38:36.307Z,1011.09
2017-08-24T05:39:36.340Z,1011.22
2017-08-24T05:40:36.364Z,1011.4
2017-08-24T05:41:36.389Z,1011.43
2017-08-24T05:42:36.411Z,1011.45
2017-08-24T05:44:36.466Z,1011.38
2017-08-24T05:45:36.496Z,1011.34
2017-08-24T05:46:36.518Z,1011.41
2017-08-24T05:47:36.553Z,1011.3
2017-08-24T05:48:36.578Z,1011.17
2017-08-24T05:49:36.600Z,1011.16
2017-08-24T05:50:36.636Z,1011.07
2017-08-24T05:51:36.656Z,1011.1
2017-08-24T05:52:36.686Z,1011.32
2017-08-24T05:53:36.722Z,1011.31
2017-08-24T05:54:36.743Z,1011.09
2017-08-24T05:55:36.763Z,1011.14
2017-08-24T05:56:36.796Z,1011.16
2017-08-24T05:57:36.825Z,1011.42
2017-08-24T05:59:36.878Z,1011.41
2017-08-24T06:00:36.904Z,1011.35
2017-08-24T06:01:36.933Z,1011.62
2017-08-24T06:02:36.959Z,1011.47
2017-08-24T06:03:36.989Z,1011.63
2017-08-24T06:04:37.018Z,1011.47
2017-08-24T06:05:37.044Z,1011.32
2017-08-24T06:06:37.071Z,1011.22
2017-08-24T06:07:37.100Z,1011.24
2017-08-24T06:08:37.130Z,1011.18
2017-08-24T06:09:37.160Z,1011.4
2017-08-24T06:10:37.193Z,1011.43
2017-08-24T06:11:37.214Z,1011.3
2017-08-24T06:12:37.244Z,1011.46
2017-08-24T06:13:37.272Z,1011.51
2017-08-24T06:14:37.301Z,1011.6
2017-08-24T06:15:37.349Z,1011.74
2017-08-24T06:16:37.355Z,1011.77
2017-08-24T06:17:37.387Z,1011.85
2017-08-24T06:18:37.415Z,1012.03
2017-08-24T06:19:37.443Z,1012.19
2017-08-24T06:20:37.475Z,1012.17
2017-08-24T06:21:37.502Z,1011.64
2017-08-24T06:22:37.531Z,1012.03
2017-08-24T06:23:37.562Z,1012.31
2017-08-24T06:24:37.590Z,1012.11
2017-08-24T06:25:37.619Z,1011.87
2017-08-24T06:26:37.650Z,1011.85
2017-08-24T06:27:37.678Z,1012.25
2017-08-24T06:28:37.709Z,1012.33
2017-08-24T06:29:37.738Z,1012.19
2017-08-24T06:31:37.799Z,1012.24
2017-08-24T06:32:37.829Z,1012.19
2017-08-24T06:33:37.858Z,1012.22
2017-08-24T06:34:37.890Z,1012.22
2017-08-24T06:35:37.922Z,1012.16
2017-08-24T06:36:37.952Z,1012.24
2017-08-24T06:37:37.984Z,1012.22
2017-08-24T06:38:38.018Z,1011.38
2017-08-24T06:39:38.048Z,1012.19
2017-08-24T06:40:38.079Z,1012.32
2017-08-24T06:41:38.115Z,1012.22
2017-08-24T06:42:38.144Z,1011.86
2017-08-24T06:43:38.175Z,1011.32
2017-08-24T06:44:38.203Z,1011.25
2017-08-24T06:45:38.240Z,1011.34
2017-08-24T06:47:38.304Z,1011.46
2017-08-24T06:48:38.336Z,1011.31
2017-08-24T06:49:38.366Z,1011.5
2017-08-24T06:50:38.399Z,1011.31
2017-08-24T06:51:38.432Z,1011.27
2017-08-24T06:52:38.463Z,1011.24
2017-08-24T06:53:38.493Z,1011.17
2017-08-24T06:54:38.523Z,1011.1
2017-08-24T06:55:38.552Z,1011.09
2017-08-24T06:56:38.583Z,1011.11
2017-08-24T06:57:38.616Z,1011.13
2017-08-24T06:58:38.643Z,1011.13
2017-08-24T06:59:38.672Z,1011.12
2017-08-24T07:00:38.704Z,1011.1
2017-08-24T07:01:38.731Z,1011.03
2017-08-24T07:03:38.794Z,1010.92
2017-08-24T07:04:38.823Z,1010.95
2017-08-24T07:05:38.857Z,1010.93
2017-08-24T07:06:38.878Z,1010.95
2017-08-24T07:07:38.914Z,1010.92
2017-08-24T07:08:38.940Z,1010.97
2017-08-24T07:09:38.968Z,1011.11
2017-08-24T07:10:39.022Z,1011.17
2017-08-24T07:11:39.025Z,1011.06
2017-08-24T07:12:39.057Z,1011.06
2017-08-24T07:13:39.082Z,1011.05
2017-08-24T07:14:39.115Z,1011.12
2017-08-24T07:15:39.145Z,1011.09
2017-08-24T07:16:39.168Z,1011.09
2017-08-24T07:17:39.196Z,1011.12
2017-08-24T07:19:39.252Z,1011.17
2017-08-24T07:20:39.283Z,1011.18
2017-08-24T07:21:39.306Z,1011.25
2017-08-24T07:22:39.335Z,1011.3
2017-08-24T07:23:39.366Z,1011.25
2017-08-24T07:24:39.395Z,1011.24
2017-08-24T07:25:39.426Z,1011.49
2017-08-24T07:26:39.449Z,1011.44
2017-08-24T07:27:39.481Z,1011.48
2017-08-24T07:28:39.509Z,1011.41
2017-08-24T07:29:39.539Z,1011.54
2017-08-24T07:30:39.569Z,1011.51
2017-08-24T07:31:39.595Z,1011.46
2017-08-24T07:32:39.626Z,1011.45
2017-08-24T07:34:39.686Z,1011.38
2017-08-24T07:35:39.715Z,1011.31
2017-08-24T07:36:39.745Z,1011.27
2017-08-24T07:37:39.776Z,1011.31
2017-08-24T07:38:39.807Z,1011.31
2017-08-24T07:39:39.836Z,1011.3
2017-08-24T07:40:39.865Z,1011.4
2017-08-24T07:41:39.900Z,1011.43
2017-08-24T07:42:39.926Z,1011.54
2017-08-24T07:43:39.959Z,1011.54
2017-08-24T07:44:39.989Z,1011.59
2017-08-24T07:45:40.021Z,1011.55
2017-08-24T07:46:40.048Z,1011.58
2017-08-24T07:47:40.083Z,1011.56
2017-08-24T07:48:40.114Z,1011.53
2017-08-24T07:49:40.146Z,1011.52
2017-08-24T07:50:40.174Z,1011.54
2017-08-24T07:51:40.211Z,1011.52
2017-08-24T07:52:40.241Z,1011.51
2017-08-24T07:53:40.273Z,1011.48
2017-08-24T07:54:40.303Z,1011.42
2017-08-24T07:55:40.339Z,1011.47
2017-08-24T07:56:40.372Z,1011.38
2017-08-24T07:57:40.403Z,1011.39
2017-08-24T07:58:40.437Z,1011.43
2017-08-24T07:59:40.468Z,1011.41
2017-08-24T08:00:40.499Z,1011.34
2017-08-24T08:01:40.533Z,1011.28
2017-08-24T08:02:40.567Z,1011.22
2017-08-24T08:03:40.600Z,1011.18
2017-08-24T08:04:40.630Z,1011.13
2017-08-24T08:06:40.695Z,1011.13
2017-08-24T08:07:40.731Z,1011.08
2017-08-24T08:08:40.766Z,1011.06
2017-08-24T08:09:40.799Z,1011.05
2017-08-24T08:10:40.832Z,1011.06
2017-08-24T08:11:40.863Z,1011.06
2017-08-24T08:12:40.896Z,1011.1
2017-08-24T08:13:40.929Z,1011.05
2017-08-24T08:14:40.962Z,1011.01
2017-08-24T08:15:40.995Z,1011.08
2017-08-24T08:16:41.026Z,1011.06
2017-08-24T08:17:41.058Z,1011.03
2017-08-24T08:18:41.092Z,1011.03
2017-08-24T08:19:41.127Z,1011.04
2017-08-24T08:20:41.164Z,1011.05
2017-08-24T08:22:41.226Z,1011.12
2017-08-24T08:23:41.258Z,1011.15
2017-08-24T08:24:41.295Z,1011.19
2017-08-24T08:25:41.327Z,1011.22
2017-08-24T08:26:41.360Z,1011.19
2017-08-24T08:27:41.394Z,1011.24
2017-08-24T08:28:41.429Z,1011.16
2017-08-24T08:29:41.464Z,1011.13
2017-08-24T08:30:41.490Z,1011.1
2017-08-24T08:31:41.527Z,1011.1
2017-08-24T08:32:41.557Z,1011.1
2017-08-24T08:33:41.597Z,1011.07
2017-08-24T08:34:41.627Z,1011.05
2017-08-24T08:35:41.657Z,1011.02
2017-08-24T08:36:41.694Z,1010.96
2017-08-24T08:38:41.762Z,1010.92
2017-08-24T08:39:41.796Z,1010.86
2017-08-24T08:40:41.827Z,1010.83
2017-08-24T08:41:41.857Z,1010.77
2017-08-24T08:42:41.890Z,1010.78
2017-08-24T08:43:41.927Z,1010.78
2017-08-24T08:44:42.024Z,1010.82
2017-08-24T08:45:41.987Z,1010.86
2017-08-24T08:46:42.025Z,1010.83
2017-08-24T08:47:42.055Z,1010.86
2017-08-24T08:48:42.087Z,1010.83
2017-08-24T08:49:42.120Z,1010.83
2017-08-24T08:50:42.153Z,1010.83
2017-08-24T08:51:42.182Z,1010.8
2017-08-24T08:52:42.217Z,1010.8
2017-08-24T08:54:42.279Z,1010.79
2017-08-24T08:55:42.312Z,1010.8
2017-08-24T08:56:42.341Z,1010.81
2017-08-24T08:57:42.371Z,1010.82
2017-08-24T08:58:42.406Z,1010.83
2017-08-24T08:59:42.436Z,1010.81
2017-08-24T09:00:42.464Z,1010.8
2017-08-24T09:01:42.498Z,1010.73
2017-08-24T09:02:42.531Z,1010.77
2017-08-24T09:03:42.557Z,1010.72
2017-08-24T09:04:42.589Z,1010.74
2017-08-24T09:05:42.624Z,1010.74
2017-08-24T09:06:42.652Z,1010.73
2017-08-24T09:07:42.686Z,1010.68
2017-08-24T09:09:42.747Z,1010.71
2017-08-24T09:10:42.775Z,1010.74
2017-08-24T09:11:42.808Z,1010.77
2017-08-24T09:12:42.841Z,1010.74
2017-08-24T09:13:42.871Z,1010.76
2017-08-24T09:14:42.900Z,1010.74
2017-08-24T09:15:42.927Z,1010.77
2017-08-24T09:16:42.963Z,1010.7
2017-08-24T09:17:42.991Z,1010.71
2017-08-24T09:18:43.023Z,1010.72
2017-08-24T09:19:43.054Z,1010.72
2017-08-24T09:20:43.086Z,1010.71
2017-08-24T09:21:43.115Z,1010.63
2017-08-24T09:22:43.148Z,1010.63
2017-08-24T09:23:43.180Z,1010.56
2017-08-24T09:24:43.212Z,1010.55
2017-08-24T09:25:43.243Z,1010.57
2017-08-24T09:26:43.271Z,1010.61
2017-08-24T09:27:43.299Z,1010.62
2017-08-24T09:28:43.334Z,1010.69
2017-08-24T09:29:43.365Z,1010.63
2017-08-24T09:30:43.394Z,1010.7
2017-08-24T09:31:43.422Z,1010.68
2017-08-24T09:32:43.457Z,1010.67
2017-08-24T09:33:43.486Z,1010.68
2017-08-24T09:34:43.519Z,1010.71
2017-08-24T09:35:43.553Z,1010.69
2017-08-24T09:36:43.581Z,1010.68
2017-08-24T09:37:43.611Z,1010.66
2017-08-24T09:38:43.644Z,1010.7
2017-08-24T09:39:43.670Z,1010.67
2017-08-24T09:41:43.734Z,1010.74
2017-08-24T09:42:43.764Z,1010.76
2017-08-24T09:43:43.795Z,1010.78
2017-08-24T09:44:43.826Z,1010.74
2017-08-24T09:45:43.854Z,1010.72
2017-08-24T09:46:43.882Z,1010.76
2017-08-24T09:47:43.915Z,1010.76
2017-08-24T09:48:43.946Z,1010.75
2017-08-24T09:49:43.977Z,1010.71
2017-08-24T09:50:44.006Z,1010.7
2017-08-24T09:51:44.038Z,1010.73
2017-08-24T09:52:44.065Z,1010.69
2017-08-24T09:53:44.098Z,1010.69
2017-08-24T09:54:44.126Z,1010.65
2017-08-24T09:55:44.157Z,1010.65
2017-08-24T09:57:44.220Z,1010.59
2017-08-24T09:58:44.248Z,1010.58
2017-08-24T09:59:44.277Z,1010.55
2017-08-24T10:00:44.306Z,1010.54
2017-08-24T10:01:44.334Z,1010.55
2017-08-24T10:02:44.364Z,1010.44
2017-08-24T10:03:44.397Z,1010.3
2017-08-24T10:04:44.420Z,1010.24
2017-08-24T10:05:44.451Z,1010.28
2017-08-24T10:06:44.482Z,1010.24
2017-08-24T10:07:44.562Z,1010.19
2017-08-24T10:08:44.542Z,1010.09
2017-08-24T10:09:44.568Z,1010.09
2017-08-24T10:10:44.601Z,1010
2017-08-24T10:11:44.629Z,1009.95
2017-08-24T10:13:44.684Z,1009.76
2017-08-24T10:14:44.715Z,1009.69
2017-08-24T10:15:44.747Z,1009.64
2017-08-24T10:16:44.778Z,1009.57
2017-08-24T10:17:44.801Z,1009.47
2017-08-24T10:18:44.831Z,1009.29
2017-08-24T10:19:44.859Z,1009.17
2017-08-24T10:20:44.885Z,1008.93
2017-08-24T10:21:44.915Z,1008.82
2017-08-24T10:22:44.943Z,1008.8
2017-08-24T10:23:44.971Z,1008.78
2017-08-24T10:24:45.146Z,1008.72
2017-08-24T10:25:45.028Z,1008.6
2017-08-24T10:26:45.055Z,1008.52
2017-08-24T10:27:45.079Z,1008.51
2017-08-24T10:29:45.170Z,1008.4
2017-08-24T10:30:45.184Z,1008.24
2017-08-24T10:31:45.193Z,1008.47
2017-08-24T10:32:45.218Z,1008.86
2017-08-24T10:33:45.243Z,1009.13
2017-08-24T10:34:45.266Z,1009.27
2017-08-24T10:35:45.296Z,1009.31
2017-08-24T10:36:45.326Z,1009.32
2017-08-24T10:37:45.348Z,1009.28
2017-08-24T10:38:45.377Z,1009.21
2017-08-24T10:39:45.403Z,1009.18
2017-08-24T10:40:45.428Z,1009.21
2017-08-24T10:41:45.455Z,1009.35
2017-08-24T10:42:45.485Z,1009.45
2017-08-24T10:44:45.542Z,1009.65
2017-08-24T10:45:45.561Z,1009.6
2017-08-24T10:46:45.591Z,1009.63
2017-08-24T10:47:45.615Z,1009.71
2017-08-24T10:48:45.642Z,1009.82
2017-08-24T10:49:45.673Z,1009.84
2017-08-24T10:50:45.698Z,1009.83
2017-08-24T10:51:45.721Z,1009.82
2017-08-24T10:52:45.747Z,1009.78
2017-08-24T10:53:45.778Z,1009.76
2017-08-24T10:54:45.805Z,1009.76
2017-08-24T10:55:45.830Z,1009.79
2017-08-24T10:56:45.858Z,1009.8
2017-08-24T10:57:45.886Z,1009.83
2017-08-24T10:58:45.914Z,1009.81
2017-08-24T10:59:45.940Z,1009.8
2017-08-24T11:00:45.970Z,1009.81
2017-08-24T11:01:45.991Z,1009.83
2017-08-24T11:02:46.022Z,1009.85
2017-08-24T11:03:46.048Z,1009.86
2017-08-24T11:04:46.080Z,1009.82
2017-08-24T11:05:46.106Z,1009.81
2017-08-24T11:06:46.132Z,1009.85
2017-08-24T11:07:46.159Z,1009.83
2017-08-24T11:08:46.188Z,1009.83
2017-08-24T11:09:46.212Z,1009.86
2017-08-24T11:10:46.250Z,1009.81
2017-08-24T11:11:46.269Z,1009.89
2017-08-24T11:12:46.298Z,1009.86
2017-08-24T11:13:46.473Z,1009.85
2017-08-24T11:14:46.355Z,1009.86
2017-08-24T11:16:46.415Z,1009.84
2017-08-24T11:17:46.433Z,1009.8
2017-08-24T11:18:46.467Z,1009.84
2017-08-24T11:19:46.492Z,1009.84
2017-08-24T11:20:46.523Z,1009.88
2017-08-24T11:21:46.546Z,1009.9
2017-08-24T11:22:46.574Z,1009.93
2017-08-24T11:23:46.604Z,1009.89
2017-08-24T11:24:46.634Z,1009.87
2017-08-24T11:25:46.659Z,1009.9
2017-08-24T11:26:46.689Z,1009.85
2017-08-24T11:27:46.716Z,1009.88
2017-08-24T11:28:46.744Z,1009.86
2017-08-24T11:29:46.774Z,1009.87
2017-08-24T11:30:46.801Z,1009.81
2017-08-24T11:32:46.853Z,1009.89
2017-08-24T11:33:46.886Z,1009.94
2017-08-24T11:34:46.915Z,1009.98
2017-08-24T11:35:46.940Z,1009.95
2017-08-24T11:36:46.966Z,1009.94
2017-08-24T11:37:46.999Z,1009.9
2017-08-24T11:38:47.024Z,1009.9
2017-08-24T11:39:47.058Z,1009.89
2017-08-24T11:40:47.085Z,1009.9
2017-08-24T11:41:47.112Z,1009.89
2017-08-24T11:42:47.140Z,1009.89
2017-08-24T11:43:47.168Z,1009.87
2017-08-24T11:44:47.191Z,1009.88
2017-08-24T11:45:47.223Z,1009.87
2017-08-24T11:46:47.257Z,1009.87
2017-08-24T11:48:47.307Z,1009.91
2017-08-24T11:49:47.337Z,1009.88
2017-08-24T11:50:47.369Z,1009.91
2017-08-24T11:51:47.395Z,1009.85
2017-08-24T11:52:47.426Z,1009.82
2017-08-24T11:53:47.454Z,1009.82
2017-08-24T11:54:47.479Z,1009.79
2017-08-24T11:55:47.507Z,1009.8
2017-08-24T11:56:47.536Z,1009.81
2017-08-24T11:57:47.566Z,1009.82
2017-08-24T11:58:47.593Z,1009.79
2017-08-24T11:59:47.620Z,1009.83
2017-08-24T12:00:47.652Z,1009.85
2017-08-24T12:01:47.681Z,1009.81
2017-08-24T12:02:47.709Z,1009.82
2017-08-24T12:04:47.769Z,1009.92
2017-08-24T12:05:47.794Z,1009.9
2017-08-24T12:06:47.820Z,1009.92
2017-08-24T12:07:47.851Z,1009.92
2017-08-24T12:08:47.879Z,1009.89
2017-08-24T12:09:47.909Z,1009.86
2017-08-24T12:10:47.937Z,1009.88
2017-08-24T12:11:47.969Z,1009.89
2017-08-24T12:12:47.995Z,1009.87
2017-08-24T12:13:48.025Z,1009.88
2017-08-24T12:14:48.049Z,1009.87
2017-08-24T12:15:48.079Z,1009.97
2017-08-24T12:16:48.110Z,1009.97
2017-08-24T12:17:48.142Z,1009.98
2017-08-24T12:19:48.196Z,1009.93
2017-08-24T12:20:48.222Z,1009.94
2017-08-24T12:21:48.254Z,1009.92
2017-08-24T12:22:48.280Z,1009.94
2017-08-24T12:23:48.309Z,1009.91
2017-08-24T12:24:48.338Z,1009.91
2017-08-24T12:25:48.367Z,1009.93
2017-08-24T12:26:48.396Z,1009.93
2017-08-24T12:27:48.426Z,1009.93
2017-08-24T12:28:48.455Z,1009.94
2017-08-24T12:29:48.481Z,1009.99
2017-08-24T12:30:48.513Z,1009.97
2017-08-24T12:31:48.539Z,1009.97
2017-08-24T12:32:48.568Z,1009.97
2017-08-24T12:33:48.593Z,1010
2017-08-24T12:34:48.624Z,1009.98
2017-08-24T12:35:48.650Z,1009.98
2017-08-24T12:36:48.684Z,1010.01
2017-08-24T12:37:48.713Z,1010.03
2017-08-24T12:38:48.740Z,1010
2017-08-24T12:39:48.768Z,1010.06
2017-08-24T12:40:48.796Z,1010.06
2017-08-24T12:41:48.822Z,1010.11
2017-08-24T12:42:48.854Z,1010.1
2017-08-24T12:43:48.880Z,1010.08
2017-08-24T12:44:48.913Z,1010.07
2017-08-24T12:45:48.937Z,1010.12
2017-08-24T12:46:48.968Z,1010.16
2017-08-24T12:47:48.997Z,1010.21
2017-08-24T12:48:49.026Z,1010.25